Airfield :
LOGIN :

Register | Disclaimer

   EN    FR    IT 

 










Legend :    VFR   Marginal VFR   IFR   Intensive IFR   Very Intensive IFR
Visi :
Ceiling :
>= 8 km
>= 3000ft
5 to 8 km
1000 to 3000 ft
1500m to 5 km
500 to 1000 ft
800 to 1500m
200 to 500 ft
< 800m
< 200 ft
Symbols :   Thunderstorms  Fog  Heavy snow  Heavy precipitations  Wind > 20 kt
SIGMETs :     Misc.  Thunderstorms  Icing  Turbulence  Mountain Waves  Volcanic Ashes







- Airport Elevation : 24 ft
- IATA code : SGD


EKSB - Sonderborg

CURRENT METAR :
  • 300050Z AUTO 07003KT 5000NDV BKN050/// 14/14 Q1011

EXPIRED METARs :
  • 300020Z AUTO 10001KT 5000NDV BKN046/// 13/13 Q1011
  • 292350Z AUTO 07002KT 4900NDV BR NCD 13/12 Q1011
  • 292320Z AUTO 03003KT 6000NDV FEW050/// 14/13 Q1011
  • 292250Z AUTO 06003KT 7000NDV SCT160/// 14/13 Q1011
  • 292220Z AUTO 05003KT 9000NDV FEW009/// SCT059/// SCT160/// 14/13 Q1012

Expired Forecast.
No reported NOTAMs for that airfield.



MET'MAP, your aeronautical weather chart ! - Copyright ORBIFLY December 2007 - Disclaimer

ORBIFLY MET'MAP TEAM :

Programming & Development : Alexandra Zaïnal
Concept & Development : Baudouin d'Aumeries
Co-Development & Prog : Marc-Olivier Méhu
Technical & hardware support : Manuel Goepfert

Contact : metmap@orbifly.com




SOURCES & CREDITS :

   NOAA